sensor_id;sensor_type;location;lat;lon;timestamp;pressure;altitude;pressure_sealevel;temperature;humidity
65754;BME280;52488;47.502;18.940;2022-10-20T00:01:01;98895.25;;;6.11;77.30
65754;BME280;52488;47.502;18.940;2022-10-20T00:02:04;98899.03;;;6.08;77.39
65754;BME280;52488;47.502;18.940;2022-10-20T00:03:07;98900.16;;;6.13;77.33
65754;BME280;52488;47.502;18.940;2022-10-20T00:04:10;98898.88;;;6.14;77.21
65754;BME280;52488;47.502;18.940;2022-10-20T00:05:13;98901.22;;;6.09;77.14
65754;BME280;52488;47.502;18.940;2022-10-20T00:06:21;98900.59;;;6.03;77.18
65754;BME280;52488;47.502;18.940;2022-10-20T00:07:24;98909.53;;;6.04;77.17
65754;BME280;52488;47.502;18.940;2022-10-20T00:08:32;98897.16;;;6.03;77.04
65754;BME280;52488;47.502;18.940;2022-10-20T00:09:35;98904.47;;;6.08;76.83
65754;BME280;52488;47.502;18.940;2022-10-20T00:10:38;98893.16;;;6.04;76.87
65754;BME280;52488;47.502;18.940;2022-10-20T00:11:41;98904.81;;;6.04;76.82
65754;BME280;52488;47.502;18.940;2022-10-20T00:12:44;98903.00;;;6.07;76.66
65754;BME280;52488;47.502;18.940;2022-10-20T00:13:49;98905.53;;;6.05;76.61
65754;BME280;52488;47.502;18.940;2022-10-20T00:14:53;98911.13;;;5.99;76.80
65754;BME280;52488;47.502;18.940;2022-10-20T00:15:57;98909.78;;;5.93;77.42
65754;BME280;52488;47.502;18.940;2022-10-20T00:17:00;98910.31;;;5.91;77.65
65754;BME280;52488;47.502;18.940;2022-10-20T00:18:04;98910.09;;;5.89;77.67
65754;BME280;52488;47.502;18.940;2022-10-20T00:19:06;98905.69;;;5.86;77.78
65754;BME280;52488;47.502;18.940;2022-10-20T00:20:10;98913.47;;;5.82;78.12
65754;BME280;52488;47.502;18.940;2022-10-20T00:21:16;98914.72;;;5.81;78.34
65754;BME280;52488;47.502;18.940;2022-10-20T00:22:19;98915.81;;;5.78;78.42
65754;BME280;52488;47.502;18.940;2022-10-20T00:23:22;98913.06;;;5.78;78.40
65754;BME280;52488;47.502;18.940;2022-10-20T00:24:25;98913.59;;;5.76;78.56
65754;BME280;52488;47.502;18.940;2022-10-20T00:25:28;98916.31;;;5.76;78.74
65754;BME280;52488;47.502;18.940;2022-10-20T00:26:31;98922.12;;;5.73;78.66
65754;BME280;52488;47.502;18.940;2022-10-20T00:27:34;98918.84;;;5.74;78.67
65754;BME280;52488;47.502;18.940;2022-10-20T00:28:43;98913.59;;;5.76;78.75
65754;BME280;52488;47.502;18.940;2022-10-20T00:29:47;98916.84;;;5.75;78.77
65754;BME280;52488;47.502;18.940;2022-10-20T00:30:53;98916.53;;;5.78;78.56
65754;BME280;52488;47.502;18.940;2022-10-20T00:31:57;98917.03;;;5.77;78.13
65754;BME280;52488;47.502;18.940;2022-10-20T00:33:00;98922.12;;;5.73;78.03
65754;BME280;52488;47.502;18.940;2022-10-20T00:34:04;98913.53;;;5.69;78.13
65754;BME280;52488;47.502;18.940;2022-10-20T00:35:07;98921.63;;;5.61;78.25
65754;BME280;52488;47.502;18.940;2022-10-20T00:36:13;98921.94;;;5.57;78.50
65754;BME280;52488;47.502;18.940;2022-10-20T00:37:17;98919.94;;;5.58;78.78
65754;BME280;52488;47.502;18.940;2022-10-20T00:38:20;98922.66;;;5.58;79.03
65754;BME280;52488;47.502;18.940;2022-10-20T00:39:23;98921.41;;;5.59;79.07
65754;BME280;52488;47.502;18.940;2022-10-20T00:40:26;98919.41;;;5.60;79.14
65754;BME280;52488;47.502;18.940;2022-10-20T00:41:29;98919.22;;;5.57;79.34
65754;BME280;52488;47.502;18.940;2022-10-20T00:42:33;98915.22;;;5.59;79.14
65754;BME280;52488;47.502;18.940;2022-10-20T00:43:45;98926.44;;;5.55;78.98
65754;BME280;52488;47.502;18.940;2022-10-20T00:44:54;98915.88;;;5.51;79.10
65754;BME280;52488;47.502;18.940;2022-10-20T00:45:58;98918.78;;;5.53;79.10
65754;BME280;52488;47.502;18.940;2022-10-20T00:47:01;98920.25;;;5.54;79.35
65754;BME280;52488;47.502;18.940;2022-10-20T00:48:19;98919.94;;;5.58;79.37
65754;BME280;52488;47.502;18.940;2022-10-20T00:49:24;98919.94;;;5.58;79.25
65754;BME280;52488;47.502;18.940;2022-10-20T00:50:36;98923.41;;;5.59;79.39
65754;BME280;52488;47.502;18.940;2022-10-20T00:51:41;98914.50;;;5.58;79.22
65754;BME280;52488;47.502;18.940;2022-10-20T00:52:46;98921.94;;;5.57;78.98
65754;BME280;52488;47.502;18.940;2022-10-20T00:53:51;98914.50;;;5.58;78.87
65754;BME280;52488;47.502;18.940;2022-10-20T00:54:59;98920.97;;;5.55;78.61
65754;BME280;52488;47.502;18.940;2022-10-20T00:56:02;98932.75;;;5.50;78.71
65754;BME280;52488;47.502;18.940;2022-10-20T00:57:05;98924.16;;;5.46;78.75
65754;BME280;52488;47.502;18.940;2022-10-20T00:58:08;98923.03;;;5.41;79.13
65754;BME280;52488;47.502;18.940;2022-10-20T00:59:13;98928.28;;;5.39;79.55
65754;BME280;52488;47.502;18.940;2022-10-20T01:00:18;98923.56;;;5.40;79.67
65754;BME280;52488;47.502;18.940;2022-10-20T01:01:21;98922.09;;;5.39;79.80
65754;BME280;52488;47.502;18.940;2022-10-20T01:02:24;98921.56;;;5.40;79.93
65754;BME280;52488;47.502;18.940;2022-10-20T01:03:36;98926.47;;;5.42;80.17
65754;BME280;52488;47.502;18.940;2022-10-20T01:04:41;98921.75;;;5.42;80.15
65754;BME280;52488;47.502;18.940;2022-10-20T01:05:44;98917.56;;;5.41;79.96
65754;BME280;52488;47.502;18.940;2022-10-20T01:06:47;98923.03;;;5.41;80.14
65754;BME280;52488;47.502;18.940;2022-10-20T01:07:50;98927.22;;;5.42;80.05
65754;BME280;52488;47.502;18.940;2022-10-20T01:08:56;98924.47;;;5.42;80.07
65754;BME280;52488;47.502;18.940;2022-10-20T01:10:01;98925.75;;;5.41;80.16
65754;BME280;52488;47.502;18.940;2022-10-20T01:15:19;98920.59;;;5.38;80.18
65754;BME280;52488;47.502;18.940;2022-10-20T01:16:56;98928.47;;;5.41;80.33
65754;BME280;52488;47.502;18.940;2022-10-20T01:18:20;98921.75;;;5.42;80.47
65754;BME280;52488;47.502;18.940;2022-10-20T01:19:54;98923.03;;;5.41;80.80
65754;BME280;52488;47.502;18.940;2022-10-20T01:22:50;98923.22;;;5.43;80.60
65754;BME280;52488;47.502;18.940;2022-10-20T01:28:34;98923.22;;;5.43;80.27
65754;BME280;52488;47.502;18.940;2022-10-20T01:30:06;98919.37;;;5.39;80.32
65754;BME280;52488;47.502;18.940;2022-10-20T01:33:15;98926.59;;;5.36;80.74
65754;BME280;52488;47.502;18.940;2022-10-20T01:36:04;98929.44;;;5.30;80.57
65754;BME280;52488;47.502;18.940;2022-10-20T01:37:28;98924.28;;;5.27;80.47
65754;BME280;52488;47.502;18.940;2022-10-20T01:39:11;98933.72;;;5.26;80.58
65754;BME280;52488;47.502;18.940;2022-10-20T01:40:29;98924.50;;;5.29;80.32
65754;BME280;52488;47.502;18.940;2022-10-20T01:41:57;98932.25;;;5.25;80.49
65754;BME280;52488;47.502;18.940;2022-10-20T01:43:04;98930.06;;;5.23;80.69
65754;BME280;52488;47.502;18.940;2022-10-20T01:44:11;98935.72;;;5.25;80.63
65754;BME280;52488;47.502;18.940;2022-10-20T01:45:17;98929.34;;;5.23;80.66
65754;BME280;52488;47.502;18.940;2022-10-20T01:46:24;98933.34;;;5.22;80.82
65754;BME280;52488;47.502;18.940;2022-10-20T01:47:29;98933.09;;;5.20;80.69
65754;BME280;52488;47.502;18.940;2022-10-20T01:48:34;98933.63;;;5.18;80.53
65754;BME280;52488;47.502;18.940;2022-10-20T01:49:43;98932.91;;;5.18;80.54
65754;BME280;52488;47.502;18.940;2022-10-20T01:50:48;98931.03;;;5.13;80.76
65754;BME280;52488;47.502;18.940;2022-10-20T01:51:52;98935.75;;;5.12;80.82
65754;BME280;52488;47.502;18.940;2022-10-20T01:52:57;98925.16;;;5.09;80.85
65754;BME280;52488;47.502;18.940;2022-10-20T01:54:00;98931.12;;;5.07;81.00
65754;BME280;52488;47.502;18.940;2022-10-20T01:55:13;98933.31;;;5.09;81.14
65754;BME280;52488;47.502;18.940;2022-10-20T01:58:17;98924.53;;;5.02;81.00
65754;BME280;52488;47.502;18.940;2022-10-20T01:59:36;98927.06;;;5.00;81.04
65754;BME280;52488;47.502;18.940;2022-10-20T02:00:45;98934.25;;;4.98;81.39
65754;BME280;52488;47.502;18.940;2022-10-20T02:07:16;98929.88;;;5.08;81.05
65754;BME280;52488;47.502;18.940;2022-10-20T02:08:47;98939.59;;;5.03;80.82
65754;BME280;52488;47.502;18.940;2022-10-20T02:10:17;98935.22;;;5.00;81.09
65754;BME280;52488;47.502;18.940;2022-10-20T02:11:54;98927.78;;;5.01;81.33
65754;BME280;52488;47.502;18.940;2022-10-20T02:13:03;98927.97;;;5.03;81.38
65754;BME280;52488;47.502;18.940;2022-10-20T02:14:11;98930.41;;;5.07;81.25
65754;BME280;52488;47.502;18.940;2022-10-20T02:15:18;98927.69;;;5.07;81.18
65754;BME280;52488;47.502;18.940;2022-10-20T02:16:48;98927.88;;;5.09;81.16
65754;BME280;52488;47.502;18.940;2022-10-20T02:17:57;98935.50;;;5.10;81.19
65754;BME280;52488;47.502;18.940;2022-10-20T02:19:05;98931.75;;;5.13;81.06
65754;BME280;52488;47.502;18.940;2022-10-20T02:20:09;98931.03;;;5.13;80.96
65754;BME280;52488;47.502;18.940;2022-10-20T02:21:13;98929.75;;;5.14;80.94
65754;BME280;52488;47.502;18.940;2022-10-20T02:22:19;98930.06;;;5.10;80.76
65754;BME280;52488;47.502;18.940;2022-10-20T02:23:23;98934.78;;;5.10;80.79
65754;BME280;52488;47.502;18.940;2022-10-20T02:24:33;98934.28;;;5.11;80.93
65754;BME280;52488;47.502;18.940;2022-10-20T02:25:38;98941.91;;;5.13;81.23
65754;BME280;52488;47.502;18.940;2022-10-20T02:26:42;98939.91;;;5.13;81.41
65754;BME280;52488;47.502;18.940;2022-10-20T02:27:46;98940.84;;;5.16;81.37
65754;BME280;52488;47.502;18.940;2022-10-20T02:28:59;98945.06;;;5.17;81.44
65754;BME280;52488;47.502;18.940;2022-10-20T02:30:07;98939.50;;;5.22;81.15
65754;BME280;52488;47.502;18.940;2022-10-20T02:31:11;98938.12;;;5.16;80.76
65754;BME280;52488;47.502;18.940;2022-10-20T02:32:15;98939.19;;;5.13;80.98
65754;BME280;52488;47.502;18.940;2022-10-20T02:33:19;98937.19;;;5.13;81.07
65754;BME280;52488;47.502;18.940;2022-10-20T02:34:26;98937.62;;;5.17;81.01
65754;BME280;52488;47.502;18.940;2022-10-20T02:35:31;98940.34;;;5.17;81.03
65754;BME280;52488;47.502;18.940;2022-10-20T02:36:38;98940.34;;;5.17;80.94
65754;BME280;52488;47.502;18.940;2022-10-20T02:37:42;98939.38;;;5.15;81.06
65754;BME280;52488;47.502;18.940;2022-10-20T02:38:46;98948.53;;;5.17;81.21
65754;BME280;52488;47.502;18.940;2022-10-20T02:39:49;98938.66;;;5.14;81.35
65754;BME280;52488;47.502;18.940;2022-10-20T02:40:51;98947.78;;;5.17;81.37
65754;BME280;52488;47.502;18.940;2022-10-20T02:41:54;98938.34;;;5.18;81.45
65754;BME280;52488;47.502;18.940;2022-10-20T02:42:57;98939.63;;;5.17;81.14
65754;BME280;52488;47.502;18.940;2022-10-20T02:44:00;98942.13;;;5.15;81.20
65754;BME280;52488;47.502;18.940;2022-10-20T02:45:03;98943.06;;;5.17;81.31
65754;BME280;52488;47.502;18.940;2022-10-20T02:46:07;98946.09;;;5.14;81.11
65754;BME280;52488;47.502;18.940;2022-10-20T02:47:10;98945.38;;;5.13;81.46
65754;BME280;52488;47.502;18.940;2022-10-20T02:48:14;98950.09;;;5.13;81.64
65754;BME280;52488;47.502;18.940;2022-10-20T02:49:17;98954.28;;;5.14;81.74
65754;BME280;52488;47.502;18.940;2022-10-20T02:50:22;98953.00;;;5.15;81.65
65754;BME280;52488;47.502;18.940;2022-10-20T02:51:24;98953.22;;;5.17;81.70
65754;BME280;52488;47.502;18.940;2022-10-20T02:52:28;98961.41;;;5.17;81.60
65754;BME280;52488;47.502;18.940;2022-10-20T02:53:31;98952.47;;;5.16;81.56
65754;BME280;52488;47.502;18.940;2022-10-20T02:54:35;98951.75;;;5.16;81.49
65754;BME280;52488;47.502;18.940;2022-10-20T02:55:38;98955.97;;;5.17;81.43
65754;BME280;52488;47.502;18.940;2022-10-20T02:56:41;98956.16;;;5.19;81.51
65754;BME280;52488;47.502;18.940;2022-10-20T02:57:43;98958.34;;;5.20;81.71
65754;BME280;52488;47.502;18.940;2022-10-20T02:58:48;98956.34;;;5.21;81.87
65754;BME280;52488;47.502;18.940;2022-10-20T02:59:50;98955.63;;;5.20;81.83
65754;BME280;52488;47.502;18.940;2022-10-20T03:00:53;98956.16;;;5.19;81.82
65754;BME280;52488;47.502;18.940;2022-10-20T03:01:56;98952.41;;;5.22;81.83
65754;BME280;52488;47.502;18.940;2022-10-20T03:02:59;98958.56;;;5.22;81.69
65754;BME280;52488;47.502;18.940;2022-10-20T03:04:02;98955.44;;;5.18;81.24
65754;BME280;52488;47.502;18.940;2022-10-20T03:05:05;98955.72;;;5.15;81.31
65754;BME280;52488;47.502;18.940;2022-10-20T03:06:10;98951.56;;;5.14;81.53
65754;BME280;52488;47.502;18.940;2022-10-20T03:07:14;98947.56;;;5.15;81.60
65754;BME280;52488;47.502;18.940;2022-10-20T03:08:21;98952.09;;;5.12;81.52
65754;BME280;52488;47.502;18.940;2022-10-20T03:09:26;98962.53;;;5.08;81.54
65754;BME280;52488;47.502;18.940;2022-10-20T03:10:29;98954.56;;;5.10;81.67
65754;BME280;52488;47.502;18.940;2022-10-20T03:11:32;98954.56;;;5.10;81.66
65754;BME280;52488;47.502;18.940;2022-10-20T03:12:35;98952.38;;;5.09;81.80
65754;BME280;52488;47.502;18.940;2022-10-20T03:13:38;98957.63;;;5.07;82.00
65754;BME280;52488;47.502;18.940;2022-10-20T03:14:40;98952.91;;;5.07;82.14
65754;BME280;52488;47.502;18.940;2022-10-20T03:15:44;98957.63;;;5.07;82.26
65754;BME280;52488;47.502;18.940;2022-10-20T03:16:47;98960.34;;;5.07;82.30
65754;BME280;52488;47.502;18.940;2022-10-20T03:17:50;98954.91;;;5.07;82.40
65754;BME280;52488;47.502;18.940;2022-10-20T03:18:54;98954.19;;;5.06;82.54
65754;BME280;52488;47.502;18.940;2022-10-20T03:20:04;98954.38;;;5.08;82.52
65754;BME280;52488;47.502;18.940;2022-10-20T03:21:07;98962.00;;;5.10;82.54
65754;BME280;52488;47.502;18.940;2022-10-20T03:22:10;98956.78;;;5.12;82.48
65754;BME280;52488;47.502;18.940;2022-10-20T03:23:13;98955.72;;;5.15;82.54
65754;BME280;52488;47.502;18.940;2022-10-20T03:24:21;98958.69;;;5.17;82.56
65754;BME280;52488;47.502;18.940;2022-10-20T03:25:24;98959.09;;;5.21;82.48
65754;BME280;52488;47.502;18.940;2022-10-20T03:26:27;98961.50;;;5.24;82.36
65754;BME280;52488;47.502;18.940;2022-10-20T03:27:30;98964.94;;;5.25;82.29
65754;BME280;52488;47.502;18.940;2022-10-20T03:28:33;98965.16;;;5.27;82.30
65754;BME280;52488;47.502;18.940;2022-10-20T03:29:36;98964.84;;;5.30;82.22
65754;BME280;52488;47.502;18.940;2022-10-20T03:30:39;98965.81;;;5.33;82.11
65754;BME280;52488;47.502;18.940;2022-10-20T03:31:42;98963.06;;;5.33;82.15
65754;BME280;52488;47.502;18.940;2022-10-20T03:32:45;98968.72;;;5.35;82.07
65754;BME280;52488;47.502;18.940;2022-10-20T03:33:47;98957.28;;;5.37;82.03
65754;BME280;52488;47.502;18.940;2022-10-20T03:34:50;98958.97;;;5.40;81.93
65754;BME280;52488;47.502;18.940;2022-10-20T03:35:53;98965.88;;;5.41;81.91
65754;BME280;52488;47.502;18.940;2022-10-20T03:36:56;98959.59;;;5.46;81.81
65754;BME280;52488;47.502;18.940;2022-10-20T03:37:59;98968.19;;;5.50;81.78
65754;BME280;52488;47.502;18.940;2022-10-20T03:39:04;98960.94;;;5.52;81.67
65754;BME280;52488;47.502;18.940;2022-10-20T03:40:07;98967.53;;;5.57;81.59
65754;BME280;52488;47.502;18.940;2022-10-20T03:41:13;98965.75;;;5.60;81.53
65754;BME280;52488;47.502;18.940;2022-10-20T03:42:16;98966.16;;;5.64;81.40
65754;BME280;52488;47.502;18.940;2022-10-20T03:43:19;98963.84;;;5.68;81.23
65754;BME280;52488;47.502;18.940;2022-10-20T03:44:22;98968.03;;;5.69;81.18
65754;BME280;52488;47.502;18.940;2022-10-20T03:45:25;98968.53;;;5.80;80.79
65754;BME280;52488;47.502;18.940;2022-10-20T03:46:28;98970.72;;;5.82;80.53
65754;BME280;52488;47.502;18.940;2022-10-20T03:47:31;98967.50;;;5.83;80.43
65754;BME280;52488;47.502;18.940;2022-10-20T03:48:37;98967.16;;;5.87;80.28
65754;BME280;52488;47.502;18.940;2022-10-20T03:49:40;98971.34;;;5.88;80.17
65754;BME280;52488;47.502;18.940;2022-10-20T03:50:43;98973.03;;;5.91;80.06
65754;BME280;52488;47.502;18.940;2022-10-20T03:51:46;98972.50;;;5.93;79.93
65754;BME280;52488;47.502;18.940;2022-10-20T03:52:49;98969.28;;;5.94;79.92
65754;BME280;52488;47.502;18.940;2022-10-20T03:53:52;98970.25;;;6.04;79.28
65754;BME280;52488;47.502;18.940;2022-10-20T03:54:55;98970.34;;;6.12;78.77
65754;BME280;52488;47.502;18.940;2022-10-20T03:55:58;98974.97;;;6.17;78.54
65754;BME280;52488;47.502;18.940;2022-10-20T03:57:01;98974.09;;;6.22;78.23
65754;BME280;52488;47.502;18.940;2022-10-20T03:58:14;98974.16;;;6.30;77.77
65754;BME280;52488;47.502;18.940;2022-10-20T03:59:21;98957.84;;;6.38;77.48
65754;BME280;52488;47.502;18.940;2022-10-20T04:00:28;98964.44;;;6.42;77.12
65754;BME280;52488;47.502;18.940;2022-10-20T04:01:31;98958.06;;;6.40;77.15
65754;BME280;52488;47.502;18.940;2022-10-20T04:02:37;98967.75;;;6.48;76.72
65754;BME280;52488;47.502;18.940;2022-10-20T04:03:41;98967.84;;;6.56;76.46
65754;BME280;52488;47.502;18.940;2022-10-20T04:04:44;98967.50;;;6.59;76.43
65754;BME280;52488;47.502;18.940;2022-10-20T04:05:47;98969.50;;;6.59;76.52
65754;BME280;52488;47.502;18.940;2022-10-20T04:06:49;98969.50;;;6.59;76.69
65754;BME280;52488;47.502;18.940;2022-10-20T04:07:52;98967.34;;;6.65;76.59
65754;BME280;52488;47.502;18.940;2022-10-20T04:08:57;98961.56;;;6.69;76.54
65754;BME280;52488;47.502;18.940;2022-10-20T04:10:00;98971.22;;;6.70;76.44
65754;BME280;52488;47.502;18.940;2022-10-20T04:11:04;98962.47;;;6.71;76.47
65754;BME280;52488;47.502;18.940;2022-10-20T04:12:07;98973.47;;;6.79;76.34
65754;BME280;52488;47.502;18.940;2022-10-20T04:13:10;98974.38;;;6.81;76.07
65754;BME280;52488;47.502;18.940;2022-10-20T04:14:13;98968.06;;;6.86;75.87
65754;BME280;52488;47.502;18.940;2022-10-20T04:15:16;98971.00;;;6.88;75.92
65754;BME280;52488;47.502;18.940;2022-10-20T04:16:23;98964.31;;;6.97;75.71
65754;BME280;52488;47.502;18.940;2022-10-20T04:17:26;98968.50;;;6.98;75.72
65754;BME280;52488;47.502;18.940;2022-10-20T04:18:40;98965.25;;;7.00;75.80
65754;BME280;52488;47.502;18.940;2022-10-20T04:19:43;98960.88;;;7.04;75.80
65754;BME280;52488;47.502;18.940;2022-10-20T04:20:48;98956.50;;;7.01;75.91
65754;BME280;52488;47.502;18.940;2022-10-20T04:21:51;98958.16;;;7.04;76.05
65754;BME280;52488;47.502;18.940;2022-10-20T04:22:54;98958.00;;;7.10;76.06
65754;BME280;52488;47.502;18.940;2022-10-20T04:23:57;98955.47;;;7.12;76.13
65754;BME280;52488;47.502;18.940;2022-10-20T04:25:01;98958.06;;;7.18;76.14
65754;BME280;52488;47.502;18.940;2022-10-20T04:26:10;98959.59;;;7.34;75.84
65754;BME280;52488;47.502;18.940;2022-10-20T04:27:13;98961.25;;;7.37;75.69
65754;BME280;52488;47.502;18.940;2022-10-20T04:28:19;98968.72;;;7.36;75.72
65754;BME280;52488;47.502;18.940;2022-10-20T04:29:22;98965.06;;;7.34;75.79
65754;BME280;52488;47.502;18.940;2022-10-20T04:30:25;98960.50;;;7.29;75.98
65754;BME280;52488;47.502;18.940;2022-10-20T04:31:28;98965.81;;;7.34;76.01
65754;BME280;52488;47.502;18.940;2022-10-20T04:32:31;98959.97;;;7.38;75.87
65754;BME280;52488;47.502;18.940;2022-10-20T04:33:34;98958.50;;;7.37;75.96
65754;BME280;52488;47.502;18.940;2022-10-20T04:34:37;98956.00;;;7.39;75.92
65754;BME280;52488;47.502;18.940;2022-10-20T04:35:40;98960.72;;;7.38;75.97
65754;BME280;52488;47.502;18.940;2022-10-20T04:36:43;98955.25;;;7.38;75.99
65754;BME280;52488;47.502;18.940;2022-10-20T04:37:46;98961.44;;;7.39;76.12
65754;BME280;52488;47.502;18.940;2022-10-20T04:38:53;98963.87;;;7.50;75.39
65754;BME280;52488;47.502;18.940;2022-10-20T04:39:55;98958.03;;;7.54;75.11
65754;BME280;52488;47.502;18.940;2022-10-20T04:41:00;98959.31;;;7.53;75.06
65754;BME280;52488;47.502;18.940;2022-10-20T04:42:05;98957.47;;;7.48;75.17
65754;BME280;52488;47.502;18.940;2022-10-20T04:43:08;98949.25;;;7.48;75.33
65754;BME280;52488;47.502;18.940;2022-10-20T04:44:11;98953.12;;;7.52;74.66
65754;BME280;52488;47.502;18.940;2022-10-20T04:45:14;98949.81;;;7.46;74.69
65754;BME280;52488;47.502;18.940;2022-10-20T04:46:17;98947.25;;;7.48;74.87
65754;BME280;52488;47.502;18.940;2022-10-20T04:47:20;98948.19;;;7.51;74.81
65754;BME280;52488;47.502;18.940;2022-10-20T04:48:24;98953.31;;;7.54;74.70
65754;BME280;52488;47.502;18.940;2022-10-20T04:49:27;98954.56;;;7.53;74.78
65754;BME280;52488;47.502;18.940;2022-10-20T04:50:30;98954.56;;;7.53;74.96
65754;BME280;52488;47.502;18.940;2022-10-20T04:51:33;98959.50;;;7.55;74.84
65754;BME280;52488;47.502;18.940;2022-10-20T04:52:36;98959.88;;;7.51;75.10
65754;BME280;52488;47.502;18.940;2022-10-20T04:53:39;98964.59;;;7.51;75.24
65754;BME280;52488;47.502;18.940;2022-10-20T04:54:42;98962.22;;;7.47;75.30
65754;BME280;52488;47.502;18.940;2022-10-20T04:55:53;98962.22;;;7.47;75.36
65754;BME280;52488;47.502;18.940;2022-10-20T04:56:56;98960.75;;;7.46;75.32
65754;BME280;52488;47.502;18.940;2022-10-20T04:57:59;98960.75;;;7.46;75.32
65754;BME280;52488;47.502;18.940;2022-10-20T04:59:03;98965.09;;;7.41;75.39
65754;BME280;52488;47.502;18.940;2022-10-20T05:00:12;98961.44;;;7.39;75.42
65754;BME280;52488;47.502;18.940;2022-10-20T05:01:21;98962.75;;;7.46;75.17
65754;BME280;52488;47.502;18.940;2022-10-20T05:02:24;98962.75;;;7.46;75.03
65754;BME280;52488;47.502;18.940;2022-10-20T05:03:27;98961.09;;;7.43;75.22
65754;BME280;52488;47.502;18.940;2022-10-20T05:04:30;98960.50;;;7.36;75.02
65754;BME280;52488;47.502;18.940;2022-10-20T05:05:33;98965.41;;;7.30;74.79
65754;BME280;52488;47.502;18.940;2022-10-20T05:06:36;98970.47;;;7.26;74.69
65754;BME280;52488;47.502;18.940;2022-10-20T05:07:39;98971.37;;;7.21;74.58
65754;BME280;52488;47.502;18.940;2022-10-20T05:08:45;98973.38;;;7.21;74.66
65754;BME280;52488;47.502;18.940;2022-10-20T05:09:49;98978.25;;;7.14;74.57
65754;BME280;52488;47.502;18.940;2022-10-20T05:10:52;98977.66;;;7.08;74.92
65754;BME280;52488;47.502;18.940;2022-10-20T05:11:55;98984.00;;;7.03;75.27
65754;BME280;52488;47.502;18.940;2022-10-20T05:12:57;98981.50;;;7.05;75.16
65754;BME280;52488;47.502;18.940;2022-10-20T05:14:00;98983.28;;;7.03;75.18
65754;BME280;52488;47.502;18.940;2022-10-20T05:15:03;98983.44;;;6.97;75.14
65754;BME280;52488;47.502;18.940;2022-10-20T05:16:07;98990.34;;;6.98;75.00
65754;BME280;52488;47.502;18.940;2022-10-20T05:17:10;98990.72;;;6.95;75.27
65754;BME280;52488;47.502;18.940;2022-10-20T05:18:13;98990.50;;;6.93;75.16
65754;BME280;52488;47.502;18.940;2022-10-20T05:19:19;98992.84;;;6.88;75.05
65754;BME280;52488;47.502;18.940;2022-10-20T05:20:21;98994.91;;;6.75;75.39
65754;BME280;52488;47.502;18.940;2022-10-20T05:21:27;98996.88;;;6.67;75.81
65754;BME280;52488;47.502;18.940;2022-10-20T05:22:31;98990.78;;;6.60;76.08
65754;BME280;52488;47.502;18.940;2022-10-20T05:23:34;98989.31;;;6.59;76.38
65754;BME280;52488;47.502;18.940;2022-10-20T05:24:37;98998.59;;;6.56;76.29
65754;BME280;52488;47.502;18.940;2022-10-20T05:25:40;98992.88;;;6.47;76.61
65754;BME280;52488;47.502;18.940;2022-10-20T05:26:43;98994.28;;;6.40;77.02
65754;BME280;52488;47.502;18.940;2022-10-20T05:27:46;98993.53;;;6.40;77.20
65754;BME280;52488;47.502;18.940;2022-10-20T05:28:51;98997.84;;;6.35;77.49
65754;BME280;52488;47.502;18.940;2022-10-20T05:29:54;99007.81;;;6.32;77.57
65754;BME280;52488;47.502;18.940;2022-10-20T05:31:01;99008.16;;;6.29;77.51
65754;BME280;52488;47.502;18.940;2022-10-20T05:32:04;99008.72;;;6.27;77.67
65754;BME280;52488;47.502;18.940;2022-10-20T05:33:07;99011.94;;;6.26;77.85
65754;BME280;52488;47.502;18.940;2022-10-20T05:34:10;99007.75;;;6.25;78.02
65754;BME280;52488;47.502;18.940;2022-10-20T05:35:13;99015.53;;;6.21;78.29
65754;BME280;52488;47.502;18.940;2022-10-20T05:36:18;99019.13;;;6.16;78.62
65754;BME280;52488;47.502;18.940;2022-10-20T05:37:23;99025.84;;;6.15;78.75
65754;BME280;52488;47.502;18.940;2022-10-20T05:38:34;99022.38;;;6.14;78.94
65754;BME280;52488;47.502;18.940;2022-10-20T05:39:42;99016.94;;;6.14;79.07
65754;BME280;52488;47.502;18.940;2022-10-20T05:40:45;99025.44;;;6.11;79.48
65754;BME280;52488;47.502;18.940;2022-10-20T05:41:47;99023.03;;;6.07;79.66
65754;BME280;52488;47.502;18.940;2022-10-20T05:42:50;99031.97;;;6.07;79.52
65754;BME280;52488;47.502;18.940;2022-10-20T05:43:58;99029.16;;;6.00;79.56
65754;BME280;52488;47.502;18.940;2022-10-20T05:45:01;99034.28;;;6.03;79.77
65754;BME280;52488;47.502;18.940;2022-10-20T05:46:08;99035.41;;;6.08;79.42
65754;BME280;52488;47.502;18.940;2022-10-20T05:47:11;99035.00;;;6.04;79.67
65754;BME280;52488;47.502;18.940;2022-10-20T05:48:15;99033.00;;;6.04;79.71
65754;BME280;52488;47.502;18.940;2022-10-20T05:49:18;99033.13;;;5.99;79.98
65754;BME280;52488;47.502;18.940;2022-10-20T05:50:21;99038.38;;;5.97;80.27
65754;BME280;52488;47.502;18.940;2022-10-20T05:51:27;99032.94;;;5.97;80.40
65754;BME280;52488;47.502;18.940;2022-10-20T05:52:30;99035.22;;;5.93;80.62
65754;BME280;52488;47.502;18.940;2022-10-20T05:53:37;99041.22;;;5.91;80.89
65754;BME280;52488;47.502;18.940;2022-10-20T05:54:41;99033.78;;;5.92;81.16
65754;BME280;52488;47.502;18.940;2022-10-20T05:55:44;99039.22;;;5.92;81.50
65754;BME280;52488;47.502;18.940;2022-10-20T05:56:47;99038.50;;;5.91;81.67
65754;BME280;52488;47.502;18.940;2022-10-20T05:57:51;99042.38;;;5.96;81.69
65754;BME280;52488;47.502;18.940;2022-10-20T05:58:55;99037.66;;;5.96;81.81
65754;BME280;52488;47.502;18.940;2022-10-20T05:59:59;99032.37;;;5.98;81.78
65754;BME280;52488;47.502;18.940;2022-10-20T06:01:09;99043.72;;;6.02;81.68
65754;BME280;52488;47.502;18.940;2022-10-20T06:02:13;99045.19;;;6.03;81.71
65754;BME280;52488;47.502;18.940;2022-10-20T06:03:16;99040.13;;;6.07;81.58
65754;BME280;52488;47.502;18.940;2022-10-20T06:04:22;99050.75;;;6.11;81.76
65754;BME280;52488;47.502;18.940;2022-10-20T06:05:25;99048.22;;;6.13;81.90
65754;BME280;52488;47.502;18.940;2022-10-20T06:06:29;99046.09;;;6.19;81.81
65754;BME280;52488;47.502;18.940;2022-10-20T06:07:32;99050.16;;;6.26;81.73
65754;BME280;52488;47.502;18.940;2022-10-20T06:08:36;99050.56;;;6.30;81.63